x

Columbia River Bar - 20nm West Of Columbia River Mouth (46029) Wave Buoy

5:50 - Thu 18th Dec 2014 All times are PST. -8 hours from GMT.

  • Sig Wave height 9.5ft
  • Swell Direction
  • Peak Period 14s
  • Average Period 7s
  • Wind
    20mph, 25mph gusts
  • Sea Temp 54°f
  • Aire Temp 51°f
  • Sea Pressure 1011.2mb
  • Columbia River Bar - 20nm West Of Columbia River Mouth
  • Columbia River Bar - 20nm West Of Columbia River Mouth

More Historic Weather Station data

Upgrade to MSW Pro to gain access to the past 30 days of data for over 8000 Wavebouys and Weather Stations around the globe.

Join Pro

Comparision Forecast

View Surf forecast
   
jue 12/18 5:50 9.5ft 14s 7s 20 25 mph 1011.2mb 54f 51f
4:50 9.5ft 11s 8s 22 27 mph 1011.1mb 55f 53f
3:50 10.5ft 12s 9s 16 20 mph 1012mb 55f 53f
2:50 10ft 13s 9s 11 13 mph 1012.8mb 55f 52f
1:50 10.5ft 14s 10s 9 11 mph 1012.3mb 55f 51f
12:50 10.5ft 14s 10s 4 7 mph 1012.5mb 55f 51f
mié 12/17 11:50 9ft 13s 9s 4 7 mph 1012.9mb 55f 51f
10:50 9ft 14s 9s 7 11 mph 1012.7mb 55f 51f
9:50 9.5ft 14s 10s 11 13 mph 1012.5mb 55f 51f
8:50 9.5ft 14s 10s 7 9 mph 1012.4mb 55f 51f
7:50 9.5ft 14s 10s 7 9 mph 1012.1mb 55f 51f
6:50 10ft 14s 10s 7 11 mph 1011.6mb 55f 51f
5:50 10.5ft 15s 10s 4 9 mph 1011.3mb 55f 50f
4:50 11ft 15s 10s 7 9 mph 1010.8mb 55f 50f
3:50 9ft 14s 9s 9 11 mph 1010.1mb 55f 50f
2:50 9.5ft 11s 9s 4 7 mph 1009.6mb 55f 51f
1:50 10ft 15s 10s 2 7 mph 1009.2mb 55f 51f
12:50 10ft 13s 10s 2 4 mph 1009.4mb 55f 52f
11:50 10.5ft 13s 10s 2 7 mph 1009.2mb 55f 52f
10:50 10ft 12s 10s 7 9 mph 1009.4mb 55f 52f
9:50 10ft 14s 10s 7 11 mph 1008.8mb 55f 52f
8:50 10.5ft 14s 10s 9 13 mph 1007.7mb 55f 51f
7:50 9.5ft 12s 10s 7 9 mph 1007.7mb 55f 51f
6:50 8ft 14s 9s 9 13 mph 1007.6mb 54f 51f
5:50 9ft 12s 9s 9 11 mph 1007.5mb 55f 51f
4:50 9ft 10s 8s 9 11 mph 1007.3mb 54f 51f
3:50 7.5ft 12s 8s 13 18 mph 1007.1mb 54f 51f
2:50 7ft 12s 8s 13 16 mph 1007.2mb 55f 51f
1:50 7ft 12s 8s 7 9 mph 1007.3mb 55f 52f
12:50 7ft 13s 8s 7 9 mph 1007.9mb 55f 52f
mar 12/16 11:50 8ft 12s 8s 7
mph
1008.1mb 56f 52f
10:50 7ft 12s 7s 11 13 mph 1008.4mb 56f 52f
9:50 7.5ft 13s 8s 13 16 mph 1007.9mb 56f 53f
8:50 9ft 11s 8s 13 18 mph 1007.8mb 56f 53f
7:50 8ft 13s 8s 16 18 mph 1007.8mb 56f 53f
6:50 9ft 12s 8s 16 20 mph 1007.7mb 56f 53f
5:50 8.5ft 12s 7s 16 20 mph 1007.7mb 56f 53f
4:50 9.5ft 12s 8s 16 20 mph 1007.5mb 56f 53f
3:50 9ft 12s 8s 16 20 mph 1007.4mb 56f 53f
2:50 9ft 13s 8s 13 16 mph 1007.5mb 56f 54f
1:50 9.5ft 12s 8s 13 16 mph 1007.6mb 56f 54f
12:50 9ft 13s 7s 16 20 mph 1007.7mb 56f 54f
11:50 9ft 13s 7s 20 27 mph 1007.8mb 56f 53f
10:50 10ft 13s 7s 22 27 mph 1007.8mb 56f 53f
9:50 9.5ft 14s 7s 25 29 mph 1007.4mb 56f 53f
8:50 9ft 14s 7s 25 29 mph 1007mb 56f 53f
7:50 9ft 14s 6s 22 27 mph 1006.8mb 56f 53f
6:50 10ft 14s 7s 25 29 mph 1006.4mb 56f 51f
5:50 10ft 14s 7s 25 29 mph 1006.4mb 56f 51f
4:50 10ft 12s 7s 25 31 mph 1006.3mb 56f 51f
3:50 10ft 13s 7s 20 25 mph 1006.5mb 56f 51f
2:50 11ft 13s 8s 22 29 mph 1006.6mb 56f 50f
1:50 13ft 14s 9s 22 27 mph 1006.5mb 55f 50f
12:50 15.5ft 15s 10s 22 27 mph 1006.8mb 54f 51f
lun 12/15 11:50 13ft 14s 9s 20 27 mph 1007.1mb 54f 52f
10:50 13ft 15s 9s 20 27 mph 1007.1mb 54f 52f
9:50 12.5ft 15s 9s 18 25 mph 1007.2mb 54f 51f
8:50 13ft 15s 9s 20 27 mph 1007.4mb 54f 52f
7:50 16ft 15s 10s 20 25 mph 1007.4mb 55f 52f
6:50 15ft 16s 10s 20 25 mph 1007.5mb 55f 53f
5:50 13.5ft 16s 10s 20 25 mph 1007.4mb 55f 52f
4:50 14ft 16s 10s 20 25 mph 1007.6mb 55f 54f
3:50 13ft 16s 9s 18 27 mph 1007.9mb 55f 52f
2:50 12ft 17s 9s 20 25 mph 1007.9mb 54f 51f
1:50 11ft 17s 8s 20 25 mph 1007.7mb 54f 51f
12:50 11ft 11s 7s 20 27 mph 1008mb 54f 51f
11:50 12ft 17s 8s 22 27 mph 1008.4mb 54f 51f
10:50 12ft 12s 8s 25 29 mph 1008.9mb 54f 51f
9:50 13ft 12s 9s 25 31 mph 1009mb 54f 51f
8:50 13.5ft 17s 8s 25 29 mph 1008.8mb 55f 51f
7:50 14ft 16s 8s 25 29 mph 1008.6mb 55f 51f
6:50 16ft 11s 9s 22 27 mph 1008.5mb 55f 52f
5:50 16ft 11s 8s 25 29 mph 1008.8mb 55f 51f
4:50 16.5ft 16s 9s 27 31 mph 1008.6mb 55f 53f
3:50 15ft 11s 8s 29 36 mph 1008.8mb 55f 52f
2:50 13ft 17s 7s 27 34 mph 1009.2mb 55f 50f
1:50 12ft 11s 8s 29 36 mph 1009.3mb 55f 50f
12:50 12.5ft 19s 8s 29 36 mph 1009.8mb 55f 51f
dom 12/14 11:50 11.5ft 19s 8s 29 36 mph 1010.2mb 55f 51f
10:50 9ft 19s 7s 27 34 mph 1010.7mb 56f 52f
9:50 9ft 19s 7s 29 34 mph 1010.3mb 56f 51f
8:50 8.5ft 19s 6s 29 34 mph 1010.4mb 56f 51f
7:50 8ft 19s 6s 29 34 mph 1010.1mb 55f 53f
6:50 8ft 19s 6s 29 34 mph 1010.5mb 55f 53f
5:50 8ft 19s 7s 27 31 mph 1010.7mb 55f 54f
4:50 7ft 13s 6s 27 31 mph 1011.2mb 55f 54f
3:50 7.5ft 19s 6s 25 29 mph 1011.6mb 55f 55f
2:50 7ft 19s 6s 25 29 mph 1011.9mb 55f 54f